Time;durP1;ratioP1;P1;durP2;ratioP2;P2;SDS_P1;SDS_P2;PMS_P1;PMS_P2;Temp;Humidity;BMP_temperature;BMP_pressure;BME280_temperature;BME280_humidity;BME280_pressure;Samples;Min_cycle;Max_cycle;Signal;HPM_P1;HPM_P2
2021/12/09 00:01:52;;;;;;;2.85;1.02;;;16.00;48.30;;;;;;5047616;28;20056;-53
2021/12/09 00:04:26;;;;;;;2.53;0.77;;;15.90;48.20;;;;;;5046164;28;20040;-53
2021/12/09 00:06:54;;;;;;;1.77;0.88;;;16.00;48.40;;;;;;5040172;28;20128;-52
2021/12/09 00:09:28;;;;;;;1.95;1.05;;;16.00;48.30;;;;;;5040603;28;20048;-55
2021/12/09 00:11:58;;;;;;;1.58;0.57;;;16.00;48.30;;;;;;5046257;28;20458;-54
2021/12/09 00:14:27;;;;;;;1.92;1.02;;;16.00;48.40;;;;;;5044895;28;20102;-55
2021/12/09 00:16:57;;;;;;;2.15;1.00;;;15.90;48.30;;;;;;5047644;28;20064;-55
2021/12/09 00:19:25;;;;;;;0.80;0.50;;;16.00;48.40;;;;;;5045943;28;20498;-56
2021/12/09 00:21:52;;;;;;;1.15;0.77;;;15.90;48.30;;;;;;5046190;28;20052;-51
2021/12/09 00:24:19;;;;;;;0.52;0.20;;;15.90;48.30;;;;;;5046021;28;20036;-51
2021/12/09 00:26:46;;;;;;;1.10;0.50;;;15.90;48.20;;;;;;5046230;28;20044;-54
2021/12/09 00:29:16;;;;;;;0.70;0.63;;;15.90;48.20;;;;;;5046363;28;20098;-56
2021/12/09 00:31:43;;;;;;;1.90;0.63;;;15.90;48.30;;;;;;5046805;28;20502;-54
2021/12/09 00:34:11;;;;;;;1.13;0.63;;;15.90;48.20;;;;;;5045448;28;20041;-55
2021/12/09 00:36:41;;;;;;;1.05;0.40;;;15.90;48.20;;;;;;5046378;28;20041;-54
2021/12/09 00:39:11;;;;;;;0.98;0.75;;;15.90;48.30;;;;;;5045592;28;20041;-53
2021/12/09 00:41:38;;;;;;;1.20;0.25;;;15.90;48.30;;;;;;5040261;28;20551;-53
2021/12/09 00:44:07;;;;;;;0.57;0.45;;;15.90;48.30;;;;;;5049475;28;20102;-54
2021/12/09 00:46:39;;;;;;;3.10;0.57;;;15.90;48.30;;;;;;5046321;28;20095;-57
2021/12/09 00:49:07;;;;;;;0.28;0.20;;;15.90;48.20;;;;;;5044906;28;20055;-55
2021/12/09 00:51:35;;;;;;;0.85;0.30;;;15.90;48.20;;;;;;5045402;28;20524;-49
2021/12/09 00:54:02;;;;;;;1.60;0.68;;;15.90;48.20;;;;;;5045509;28;20520;-50
2021/12/09 00:56:29;;;;;;;1.20;0.60;;;15.90;48.20;;;;;;5045085;28;20049;-55
2021/12/09 00:58:56;;;;;;;0.85;0.22;;;15.90;48.20;;;;;;5046808;28;20452;-53
2021/12/09 01:01:24;;;;;;;0.77;0.40;;;15.90;48.20;;;;;;5045449;28;20052;-55
2021/12/09 01:03:52;;;;;;;0.65;0.10;;;15.90;48.20;;;;;;5044618;28;20053;-55
2021/12/09 01:06:20;;;;;;;0.95;0.35;;;15.90;48.20;;;;;;5045039;28;20162;-53
2021/12/09 01:08:47;;;;;;;0.35;0.22;;;15.90;48.20;;;;;;5045105;28;20041;-54
2021/12/09 01:11:15;;;;;;;0.30;0.20;;;15.90;48.20;;;;;;5045381;28;20033;-53
2021/12/09 01:13:43;;;;;;;0.30;0.10;;;15.90;48.20;;;;;;5046547;28;20650;-53
2021/12/09 01:16:11;;;;;;;0.20;0.10;;;15.90;48.20;;;;;;5045040;28;20582;-54
2021/12/09 01:18:39;;;;;;;0.40;0.30;;;15.90;48.70;;;;;;5045188;28;20123;-53
2021/12/09 01:21:08;;;;;;;1.50;0.20;;;15.90;48.20;;;;;;5045123;28;20579;-54
2021/12/09 01:23:36;;;;;;;0.98;0.30;;;15.90;48.20;;;;;;5044801;28;20457;-53
2021/12/09 01:26:05;;;;;;;0.40;0.30;;;15.80;48.10;;;;;;5046054;28;20791;-51
2021/12/09 01:28:43;;;;;;;0.20;0.10;;;15.90;48.10;;;;;;5044704;28;20049;-51
2021/12/09 01:31:10;;;;;;;0.20;0.17;;;15.80;48.10;;;;;;5044607;28;20051;-50
2021/12/09 01:33:37;;;;;;;0.57;0.20;;;15.80;48.10;;;;;;5044036;28;20505;-49
2021/12/09 01:36:06;;;;;;;0.30;0.25;;;15.80;48.10;;;;;;5044676;28;20370;-53
2021/12/09 01:38:34;;;;;;;2.13;0.15;;;15.80;48.10;;;;;;5044505;28;20646;-51
2021/12/09 01:41:01;;;;;;;0.40;0.20;;;15.80;48.10;;;;;;5045811;28;20053;-52
2021/12/09 01:43:28;;;;;;;0.50;0.13;;;15.80;48.00;;;;;;5044571;28;20044;-54
2021/12/09 01:46:03;;;;;;;1.40;0.10;;;15.80;48.00;;;;;;5044618;28;20463;-54
2021/12/09 01:48:30;;;;;;;0.45;0.30;;;15.80;48.00;;;;;;5044423;28;20131;-51
2021/12/09 01:50:57;;;;;;;1.95;0.20;;;15.80;48.00;;;;;;5044654;28;20138;-52
2021/12/09 01:53:24;;;;;;;1.05;0.65;;;15.80;48.00;;;;;;5044852;28;20052;-54
2021/12/09 01:55:54;;;;;;;0.22;0.20;;;15.80;48.00;;;;;;5045971;28;20128;-48
2021/12/09 01:58:22;;;;;;;1.38;0.10;;;15.80;48.00;;;;;;5044650;28;20041;-49
2021/12/09 02:00:49;;;;;;;2.20;0.10;;;15.80;48.00;;;;;;5043835;28;20095;-53
2021/12/09 02:03:16;;;;;;;0.13;0.10;;;15.80;48.00;;;;;;5043904;28;20048;-53
2021/12/09 02:05:43;;;;;;;0.22;0.10;;;15.80;48.00;;;;;;5044583;28;20536;-54
2021/12/09 02:08:13;;;;;;;0.10;0.10;;;15.80;48.00;;;;;;5044868;28;20563;-48
2021/12/09 02:10:41;;;;;;;0.45;0.10;;;15.80;48.00;;;;;;5045611;28;20421;-53
2021/12/09 02:13:09;;;;;;;0.30;0.22;;;15.80;48.00;;;;;;5044234;28;20052;-54
2021/12/09 02:15:39;;;;;;;0.45;0.10;;;15.80;48.00;;;;;;5043942;28;20053;-54
2021/12/09 02:18:07;;;;;;;0.90;0.90;;;15.80;48.00;;;;;;5043968;28;20029;-54
2021/12/09 02:20:38;;;;;;;0.80;0.20;;;15.80;48.00;;;;;;5044077;28;20103;-55
2021/12/09 02:23:10;;;;;;;0.17;0.10;;;15.80;47.90;;;;;;5043106;28;20416;-54
2021/12/09 02:25:39;;;;;;;0.57;0.10;;;15.80;47.90;;;;;;5044874;28;20069;-50
2021/12/09 02:28:06;;;;;;;0.50;0.10;;;15.80;48.00;;;;;;5041952;28;20098;-51
2021/12/09 02:30:33;;;;;;;0.30;0.30;;;15.80;47.90;;;;;;5043805;28;20048;-51
2021/12/09 02:33:01;;;;;;;0.65;0.00;;;15.80;47.90;;;;;;5045112;28;20045;-55
2021/12/09 02:35:28;;;;;;;0.30;0.10;;;15.80;47.90;;;;;;5044175;28;20588;-52
2021/12/09 02:37:56;;;;;;;0.20;0.10;;;15.80;47.90;;;;;;5045673;28;20045;-53
2021/12/09 02:40:23;;;;;;;0.30;0.10;;;15.80;47.90;;;;;;5044084;28;20056;-50
2021/12/09 02:42:51;;;;;;;0.63;0.10;;;15.80;47.90;;;;;;5044185;28;20041;-54
2021/12/09 02:45:18;;;;;;;0.30;0.20;;;15.80;47.90;;;;;;5043695;28;20580;-51
2021/12/09 02:47:45;;;;;;;0.38;0.00;;;15.70;47.80;;;;;;5043889;28;20037;-52
2021/12/09 02:50:12;;;;;;;0.17;0.03;;;15.70;47.80;;;;;;5044599;28;20098;-51
2021/12/09 02:52:39;;;;;;;0.85;0.80;;;15.70;47.80;;;;;;5047311;28;20520;-55
2021/12/09 02:55:09;;;;;;;1.15;0.30;;;15.70;47.90;;;;;;5043841;28;20041;-54
2021/12/09 02:57:36;;;;;;;1.10;0.30;;;15.80;47.90;;;;;;5044115;28;20131;-53
2021/12/09 03:00:05;;;;;;;0.30;0.10;;;15.70;47.80;;;;;;5043850;28;20477;-55
2021/12/09 03:02:32;;;;;;;0.70;0.03;;;15.80;47.90;;;;;;5044158;28;20041;-53
2021/12/09 03:05:02;;;;;;;0.10;0.08;;;15.70;47.80;;;;;;5047771;28;20041;-54
2021/12/09 03:07:33;;;;;;;0.60;0.00;;;15.70;47.80;;;;;;5047136;28;20041;-52
2021/12/09 03:10:03;;;;;;;0.00;0.00;;;15.70;47.90;;;;;;5047356;28;20079;-53
2021/12/09 03:12:33;;;;;;;0.30;0.10;;;15.70;47.80;;;;;;5047513;28;20522;-48
2021/12/09 03:15:01;;;;;;;0.10;0.10;;;15.70;47.80;;;;;;5045445;28;20448;-54
2021/12/09 03:17:29;;;;;;;0.73;0.00;;;15.70;47.80;;;;;;5047043;28;20048;-54
2021/12/09 03:19:56;;;;;;;0.35;0.10;;;15.70;47.80;;;;;;5048544;28;20094;-50
2021/12/09 03:22:24;;;;;;;0.60;0.15;;;15.70;47.80;;;;;;5047077;28;20045;-54
2021/12/09 03:24:51;;;;;;;0.85;0.08;;;15.70;47.80;;;;;;5046819;28;20225;-53
2021/12/09 03:27:21;;;;;;;0.00;0.00;;;15.70;47.80;;;;;;5047109;28;20124;-51
2021/12/09 03:29:49;;;;;;;0.13;0.00;;;15.70;47.80;;;;;;5046673;28;20071;-53
2021/12/09 03:32:19;;;;;;;0.40;0.03;;;15.70;47.80;;;;;;5047305;28;20671;-49
2021/12/09 03:34:47;;;;;;;0.47;0.00;;;15.70;47.80;;;;;;5046588;28;20060;-53
2021/12/09 03:37:18;;;;;;;0.52;0.52;;;15.70;47.80;;;;;;5046985;28;20057;-50
2021/12/09 03:39:45;;;;;;;0.30;0.30;;;15.70;47.80;;;;;;5047051;28;20052;-51
2021/12/09 03:42:15;;;;;;;6.32;0.00;;;15.70;48.10;;;;;;5046496;28;20041;-47
2021/12/09 03:44:43;;;;;;;0.30;0.30;;;15.70;48.30;;;;;;5043209;28;20051;-50
2021/12/09 03:47:14;;;;;;;0.57;0.10;;;15.70;48.40;;;;;;5046646;28;20048;-50
2021/12/09 03:49:42;;;;;;;2.28;0.10;;;15.70;48.60;;;;;;5047311;28;20131;-49
2021/12/09 03:52:10;;;;;;;4.63;0.10;;;15.70;48.60;;;;;;5046907;28;20045;-52
2021/12/09 03:54:41;;;;;;;1.23;0.10;;;15.70;48.70;;;;;;5046473;28;20049;-51
2021/12/09 03:57:10;;;;;;;2.78;0.10;;;15.70;48.70;;;;;;5045762;28;20040;-52
2021/12/09 03:59:37;;;;;;;0.65;0.05;;;15.70;48.80;;;;;;5046456;28;20037;-51
2021/12/09 04:02:05;;;;;;;1.75;0.57;;;15.70;48.70;;;;;;5047951;28;20052;-48
2021/12/09 04:04:34;;;;;;;2.53;0.00;;;15.70;48.80;;;;;;5045830;28;20373;-47
2021/12/09 04:07:01;;;;;;;1.65;0.50;;;15.70;48.90;;;;;;5044600;28;20052;-47
2021/12/09 04:09:29;;;;;;;0.98;0.10;;;15.70;48.80;;;;;;5045952;28;20041;-49
2021/12/09 04:11:56;;;;;;;0.10;0.00;;;15.70;48.90;;;;;;5046262;28;20037;-47
2021/12/09 04:14:23;;;;;;;2.72;0.30;;;15.70;48.90;;;;;;5046543;28;20880;-49
2021/12/09 04:16:50;;;;;;;0.65;0.00;;;15.70;48.90;;;;;;5046180;28;20831;-46
2021/12/09 04:19:20;;;;;;;0.80;0.00;;;15.70;48.90;;;;;;5045863;28;20037;-49
2021/12/09 04:21:50;;;;;;;0.77;0.10;;;15.70;49.00;;;;;;5046301;28;20045;-51
2021/12/09 04:24:17;;;;;;;0.10;0.00;;;15.70;49.00;;;;;;5045807;28;20090;-47
2021/12/09 04:26:47;;;;;;;1.27;0.00;;;15.70;49.00;;;;;;5045606;28;20060;-50
2021/12/09 04:29:14;;;;;;;1.02;0.25;;;15.70;49.00;;;;;;5047074;28;20045;-49
2021/12/09 04:31:43;;;;;;;0.52;0.00;;;15.80;49.10;;;;;;5047142;28;20052;-49
2021/12/09 04:34:12;;;;;;;0.10;0.00;;;15.80;49.10;;;;;;5045662;28;20041;-48
2021/12/09 04:36:39;;;;;;;0.38;0.00;;;15.80;49.10;;;;;;5045651;28;20047;-49
2021/12/09 04:39:08;;;;;;;1.30;0.00;;;15.80;49.10;;;;;;5045840;28;20045;-48
2021/12/09 04:41:35;;;;;;;0.77;0.22;;;15.80;49.20;;;;;;5045317;28;20045;-47
2021/12/09 04:44:03;;;;;;;0.20;0.05;;;15.80;49.20;;;;;;5047250;28;20038;-49
2021/12/09 04:46:30;;;;;;;0.57;0.10;;;15.80;49.20;;;;;;5044681;28;20615;-48
2021/12/09 04:48:57;;;;;;;0.32;0.00;;;15.80;49.20;;;;;;5047135;28;20064;-53
2021/12/09 04:51:24;;;;;;;6.75;0.10;;;15.80;49.20;;;;;;5045545;28;20052;-48
2021/12/09 04:53:52;;;;;;;0.95;0.10;;;15.80;49.20;;;;;;5045496;28;20032;-51
2021/12/09 04:56:20;;;;;;;0.55;0.00;;;15.80;49.20;;;;;;5045445;28;20053;-49
2021/12/09 04:58:47;;;;;;;2.55;0.03;;;15.80;49.30;;;;;;5046926;28;20071;-52
2021/12/09 05:01:14;;;;;;;1.35;0.15;;;15.80;49.30;;;;;;5045347;28;20049;-50
2021/12/09 05:03:45;;;;;;;1.55;0.00;;;15.80;49.90;;;;;;5045073;28;20530;-50
2021/12/09 05:06:12;;;;;;;0.10;0.00;;;15.80;49.30;;;;;;5044937;28;20061;-49
2021/12/09 05:08:44;;;;;;;0.65;0.20;;;15.80;49.30;;;;;;5044656;28;20410;-47
2021/12/09 05:11:16;;;;;;;0.45;0.00;;;15.80;49.30;;;;;;5045850;28;20067;-48
2021/12/09 05:13:44;;;;;;;0.03;0.00;;;15.80;49.30;;;;;;5046863;28;20426;-48
2021/12/09 05:16:12;;;;;;;0.30;0.00;;;15.80;49.30;;;;;;5041971;28;20037;-53
2021/12/09 05:18:41;;;;;;;0.25;0.03;;;15.80;49.30;;;;;;5038634;28;20033;-49
2021/12/09 05:21:10;;;;;;;0.55;0.10;;;15.80;49.30;;;;;;5038579;28;20045;-49
2021/12/09 05:23:37;;;;;;;1.20;0.10;;;15.80;49.30;;;;;;5045369;28;20037;-48
2021/12/09 05:26:05;;;;;;;0.30;0.05;;;15.80;49.30;;;;;;5046032;28;20036;-49
2021/12/09 05:28:34;;;;;;;2.42;0.10;;;15.80;49.30;;;;;;5044415;28;20123;-47
2021/12/09 05:33:51;;;;;;;0.40;0.10;;;15.80;49.30;;;;;;5045030;28;20041;-50
2021/12/09 05:36:19;;;;;;;2.47;0.10;;;15.80;49.30;;;;;;5044760;28;20047;-51
2021/12/09 05:38:46;;;;;;;0.30;0.10;;;15.80;49.30;;;;;;5044212;28;20071;-50
2021/12/09 05:41:13;;;;;;;0.52;0.10;;;15.80;49.40;;;;;;5045317;28;20045;-52
2021/12/09 05:43:40;;;;;;;0.40;0.10;;;15.80;49.40;;;;;;5045745;28;20090;-49
2021/12/09 05:46:09;;;;;;;0.10;0.10;;;15.80;49.40;;;;;;5044598;28;20417;-51
2021/12/09 05:48:38;;;;;;;1.33;0.63;;;15.80;49.40;;;;;;5044849;28;20120;-50
2021/12/09 05:51:05;;;;;;;2.15;0.15;;;15.80;49.50;;;;;;5044711;28;20045;-53
2021/12/09 05:53:32;;;;;;;0.45;0.40;;;15.80;49.40;;;;;;5044401;28;20049;-52
2021/12/09 05:56:00;;;;;;;1.23;0.15;;;15.80;49.40;;;;;;5045881;28;20053;-48
2021/12/09 05:58:27;;;;;;;2.85;0.10;;;15.80;49.40;;;;;;5044593;28;20048;-52
2021/12/09 06:00:55;;;;;;;1.33;0.10;;;15.80;49.40;;;;;;5044614;28;20082;-51
2021/12/09 06:03:24;;;;;;;2.05;0.82;;;15.80;49.40;;;;;;5044628;28;20041;-51
2021/12/09 06:05:54;;;;;;;4.40;0.20;;;15.80;49.50;;;;;;5043975;28;20049;-52
2021/12/09 06:08:21;;;;;;;0.73;0.20;;;15.80;49.50;;;;;;5042242;28;20099;-53
2021/12/09 06:10:49;;;;;;;0.52;0.10;;;15.80;49.50;;;;;;5045833;28;20528;-48
2021/12/09 06:13:17;;;;;;;1.02;0.20;;;15.80;49.50;;;;;;5044551;28;20037;-51
2021/12/09 06:15:44;;;;;;;0.60;0.10;;;15.80;49.50;;;;;;5044396;28;20056;-51
2021/12/09 06:18:11;;;;;;;1.15;0.10;;;15.80;49.50;;;;;;5044627;28;20047;-48
2021/12/09 06:20:40;;;;;;;0.40;0.10;;;15.80;49.50;;;;;;5040573;28;20112;-48
2021/12/09 06:23:07;;;;;;;0.75;0.10;;;15.80;49.50;;;;;;5041465;28;20045;-49
2021/12/09 06:25:35;;;;;;;0.45;0.10;;;15.80;49.50;;;;;;5044749;28;20045;-52
2021/12/09 06:28:02;;;;;;;1.70;0.10;;;15.80;49.50;;;;;;5044098;28;20098;-48
2021/12/09 06:30:29;;;;;;;1.67;0.55;;;15.80;49.50;;;;;;5044381;28;20041;-49
2021/12/09 06:32:57;;;;;;;0.75;0.10;;;15.80;49.50;;;;;;5043967;28;20529;-48
2021/12/09 06:35:26;;;;;;;1.00;0.25;;;15.80;49.50;;;;;;5044804;28;20056;-52
2021/12/09 06:37:56;;;;;;;0.10;0.05;;;15.80;49.50;;;;;;5044049;28;20509;-52
2021/12/09 06:40:25;;;;;;;0.90;0.00;;;15.80;49.50;;;;;;5047856;28;20494;-49
2021/12/09 06:42:53;;;;;;;2.17;0.10;;;15.80;49.50;;;;;;5047863;28;20525;-50
2021/12/09 06:45:24;;;;;;;0.35;0.35;;;15.80;49.50;;;;;;5048107;28;20067;-50
2021/12/09 06:47:53;;;;;;;0.63;0.15;;;15.80;49.50;;;;;;5047890;28;20052;-52
2021/12/09 06:50:22;;;;;;;1.45;0.10;;;15.80;49.50;;;;;;5048288;28;20079;-50
2021/12/09 06:52:50;;;;;;;2.03;0.10;;;15.80;49.50;;;;;;5048867;28;20047;-49
2021/12/09 06:55:21;;;;;;;0.52;0.52;;;15.80;49.60;;;;;;5048086;28;20045;-54
2021/12/09 06:57:49;;;;;;;0.50;0.20;;;15.80;49.60;;;;;;5047717;28;20053;-51
2021/12/09 07:00:21;;;;;;;4.65;0.20;;;15.80;50.20;;;;;;5047340;28;20390;-49
2021/12/09 07:02:49;;;;;;;1.88;0.17;;;15.80;49.60;;;;;;5047753;28;20041;-50
2021/12/09 07:05:18;;;;;;;0.88;0.60;;;15.80;49.60;;;;;;5047865;28;20101;-55
2021/12/09 07:07:46;;;;;;;0.73;0.30;;;15.80;49.60;;;;;;5048433;28;20047;-48
2021/12/09 07:10:14;;;;;;;2.25;0.10;;;15.80;49.60;;;;;;5047443;28;20044;-47
2021/12/09 07:12:43;;;;;;;0.20;0.20;;;15.80;49.70;;;;;;5047780;28;20125;-49
2021/12/09 07:15:13;;;;;;;1.00;0.10;;;15.80;49.70;;;;;;5047791;28;20033;-51
2021/12/09 07:17:40;;;;;;;1.95;0.10;;;15.80;49.70;;;;;;5045958;28;20292;-50
2021/12/09 07:20:17;;;;;;;0.35;0.20;;;15.80;49.70;;;;;;5048603;28;20049;-48
2021/12/09 07:22:46;;;;;;;0.98;0.10;;;15.80;49.70;;;;;;5047807;28;20084;-48
2021/12/09 07:25:17;;;;;;;1.20;0.10;;;15.80;49.80;;;;;;5047332;28;20051;-47
2021/12/09 07:27:46;;;;;;;1.20;0.10;;;15.80;49.80;;;;;;5047187;28;20041;-50
2021/12/09 07:30:15;;;;;;;0.30;0.10;;;15.80;49.80;;;;;;5047140;28;20037;-49
2021/12/09 07:32:43;;;;;;;1.95;0.10;;;15.80;49.80;;;;;;5047407;28;20077;-50
2021/12/09 07:35:11;;;;;;;0.88;0.28;;;15.80;49.80;;;;;;5047942;28;20033;-47
2021/12/09 07:37:39;;;;;;;1.95;0.10;;;15.80;49.80;;;;;;5047862;28;20511;-49
2021/12/09 07:40:09;;;;;;;5.18;0.10;;;15.80;49.90;;;;;;5044862;28;20172;-51
2021/12/09 07:42:36;;;;;;;0.17;0.10;;;15.70;49.80;;;;;;5046268;28;20045;-49
2021/12/09 07:45:06;;;;;;;0.43;0.10;;;15.70;49.80;;;;;;5040362;28;20045;-48
2021/12/09 07:47:33;;;;;;;0.30;0.10;;;15.80;49.90;;;;;;5045986;28;20116;-48
2021/12/09 07:50:01;;;;;;;0.77;0.10;;;15.80;50.00;;;;;;5046503;28;20033;-50
2021/12/09 07:52:28;;;;;;;1.20;0.08;;;15.80;49.90;;;;;;5045442;28;20433;-50
2021/12/09 07:54:55;;;;;;;0.95;0.10;;;15.70;49.90;;;;;;5041222;28;20128;-50
2021/12/09 07:57:22;;;;;;;0.35;0.20;;;15.80;49.90;;;;;;5046042;28;20115;-50
2021/12/09 07:59:49;;;;;;;1.35;0.20;;;15.80;49.90;;;;;;5046706;28;20586;-49
2021/12/09 08:02:17;;;;;;;0.40;0.20;;;15.80;49.90;;;;;;5047239;28;20049;-52
2021/12/09 08:04:44;;;;;;;3.47;0.60;;;15.70;49.90;;;;;;5047212;28;20045;-52
2021/12/09 08:07:12;;;;;;;0.73;0.30;;;15.70;49.90;;;;;;5046569;28;20131;-48
2021/12/09 08:09:39;;;;;;;2.55;0.30;;;15.70;49.90;;;;;;5045217;28;20044;-48
2021/12/09 08:12:07;;;;;;;1.27;0.20;;;15.80;50.00;;;;;;5045493;28;20386;-48
2021/12/09 08:14:34;;;;;;;0.70;0.10;;;15.80;49.90;;;;;;5047101;28;20041;-54
2021/12/09 08:17:12;;;;;;;1.80;0.17;;;15.80;49.90;;;;;;5047863;28;20045;-49
2021/12/09 08:19:41;;;;;;;3.75;0.13;;;15.70;49.90;;;;;;5046504;28;20622;-53
2021/12/09 08:22:10;;;;;;;0.85;0.73;;;15.80;49.90;;;;;;5045960;28;20040;-49
2021/12/09 08:24:38;;;;;;;1.08;0.28;;;15.80;50.00;;;;;;5045816;28;20501;-49
2021/12/09 08:27:05;;;;;;;0.75;0.75;;;15.80;50.00;;;;;;5046373;28;20045;-52
2021/12/09 08:29:32;;;;;;;1.50;0.20;;;15.80;50.00;;;;;;5046312;28;20084;-51
2021/12/09 08:32:00;;;;;;;0.20;0.10;;;15.80;50.00;;;;;;5046264;28;20742;-52
2021/12/09 08:34:27;;;;;;;1.00;0.20;;;15.80;50.00;;;;;;5045799;28;20509;-51
2021/12/09 08:36:57;;;;;;;2.78;0.30;;;15.80;49.90;;;;;;5040595;28;20041;-50
2021/12/09 08:39:24;;;;;;;0.50;0.50;;;15.70;49.90;;;;;;5046359;28;20127;-51
2021/12/09 08:41:51;;;;;;;2.80;0.45;;;15.70;49.90;;;;;;5046488;28;20064;-48
2021/12/09 08:44:18;;;;;;;2.05;0.30;;;15.80;49.90;;;;;;5043491;28;20041;-51
2021/12/09 08:46:46;;;;;;;1.92;0.32;;;15.70;49.90;;;;;;5046582;28;20064;-49
2021/12/09 08:49:13;;;;;;;0.70;0.70;;;15.80;50.00;;;;;;5042919;28;20076;-53
2021/12/09 08:51:41;;;;;;;2.83;0.35;;;15.80;50.00;;;;;;5045990;28;20087;-51
2021/12/09 08:54:09;;;;;;;2.78;0.57;;;15.80;50.60;;;;;;5044306;28;20418;-52
2021/12/09 08:56:40;;;;;;;1.25;0.40;;;15.80;50.00;;;;;;5045730;28;20048;-48
2021/12/09 08:59:08;;;;;;;1.42;0.43;;;15.80;50.00;;;;;;5045431;28;20636;-49
2021/12/09 09:01:36;;;;;;;1.95;0.22;;;15.80;50.00;;;;;;5044967;28;20045;-48
2021/12/09 09:04:03;;;;;;;1.95;0.50;;;15.80;50.00;;;;;;5041455;28;20655;-49
2021/12/09 09:06:34;;;;;;;0.88;0.38;;;15.80;50.10;;;;;;5039510;28;20522;-49
2021/12/09 09:09:04;;;;;;;0.77;0.20;;;15.80;50.00;;;;;;5045733;28;20041;-48
2021/12/09 09:11:33;;;;;;;6.18;0.57;;;15.80;50.00;;;;;;5045487;28;20073;-48
2021/12/09 09:14:03;;;;;;;3.70;0.40;;;15.80;50.10;;;;;;5047118;28;20115;-47
2021/12/09 09:16:30;;;;;;;1.58;0.50;;;15.80;50.10;;;;;;5043858;28;20476;-53
2021/12/09 09:18:57;;;;;;;1.40;0.80;;;15.90;50.20;;;;;;5045640;28;20051;-51
2021/12/09 09:21:25;;;;;;;2.33;0.82;;;15.80;50.30;;;;;;5045662;28;20041;-58
2021/12/09 09:23:52;;;;;;;3.20;0.73;;;15.80;50.40;;;;;;5045818;28;20044;-55
2021/12/09 09:26:20;;;;;;;2.30;0.20;;;15.90;50.40;;;;;;5045530;28;20049;-52
2021/12/09 09:28:48;;;;;;;4.82;0.35;;;15.90;50.40;;;;;;5046262;28;20047;-51
2021/12/09 09:31:16;;;;;;;1.23;0.35;;;15.90;50.40;;;;;;5039445;28;20524;-53
2021/12/09 09:33:46;;;;;;;1.33;0.60;;;15.90;50.40;;;;;;5044772;28;20147;-50
2021/12/09 09:36:13;;;;;;;0.95;0.20;;;15.90;50.40;;;;;;5040249;28;20567;-51
2021/12/09 09:38:41;;;;;;;3.30;0.95;;;16.00;50.40;;;;;;5037263;28;20124;-51
2021/12/09 09:41:14;;;;;;;2.45;0.75;;;16.00;50.30;;;;;;5042270;28;20048;-50
2021/12/09 09:43:56;;;;;;;2.40;0.30;;;16.00;50.30;;;;;;5044791;28;20125;-48
2021/12/09 09:46:27;;;;;;;1.08;0.43;;;16.10;50.30;;;;;;5039708;28;20595;-48
2021/12/09 09:48:56;;;;;;;4.88;0.50;;;16.10;50.30;;;;;;5044994;28;20041;-49
2021/12/09 09:51:26;;;;;;;1.63;0.40;;;16.10;50.80;;;;;;5044159;28;20786;-51
2021/12/09 09:53:53;;;;;;;0.57;0.20;;;16.10;50.20;;;;;;5045217;28;20135;-52
2021/12/09 09:56:23;;;;;;;2.38;0.93;;;16.10;50.20;;;;;;5044683;28;20048;-52
2021/12/09 09:58:53;;;;;;;1.85;0.32;;;16.20;50.10;;;;;;5044331;28;20056;-52
2021/12/09 10:01:21;;;;;;;1.85;0.73;;;16.20;50.00;;;;;;5044441;28;20094;-50
2021/12/09 10:04:09;;;;;;;3.80;0.57;;;16.20;49.90;;;;;;5044626;28;20102;-50
2021/12/09 10:06:36;;;;;;;1.20;0.63;;;16.30;50.00;;;;;;5038842;28;20084;-49
2021/12/09 10:09:04;;;;;;;3.28;0.40;;;16.30;50.10;;;;;;5044838;28;20040;-50
2021/12/09 10:11:33;;;;;;;1.08;0.40;;;16.30;50.20;;;;;;5044570;28;20052;-52
2021/12/09 10:14:11;;;;;;;1.95;1.08;;;16.40;50.30;;;;;;5048893;28;20140;-54
2021/12/09 10:16:41;;;;;;;11.55;5.28;;;16.50;50.30;;;;;;5045623;28;20049;-53
2021/12/09 10:19:19;;;;;;;4.22;1.02;;;16.50;50.50;;;;;;5048536;28;20041;-55
2021/12/09 10:21:48;;;;;;;4.82;0.95;;;16.60;50.40;;;;;;5048619;28;20045;-54
2021/12/09 10:24:16;;;;;;;3.70;0.70;;;16.60;50.30;;;;;;5045467;28;20078;-53
2021/12/09 10:26:45;;;;;;;6.35;1.08;;;16.60;50.20;;;;;;5048557;28;20335;-55
2021/12/09 10:29:19;;;;;;;4.65;1.05;;;16.70;50.10;;;;;;5048774;28;20037;-53
2021/12/09 10:31:50;;;;;;;3.80;0.70;;;16.80;50.00;;;;;;5048634;28;20090;-55
2021/12/09 10:34:33;;;;;;;6.65;1.70;;;16.80;49.90;;;;;;5046926;28;20080;-54
2021/12/09 10:37:07;;;;;;;2.67;0.93;;;16.90;49.80;;;;;;5047919;28;20136;-54
2021/12/09 10:39:38;;;;;;;4.65;1.20;;;16.90;49.70;;;;;;5047729;28;20036;-54
2021/12/09 10:42:10;;;;;;;1.52;0.45;;;16.90;49.70;;;;;;5048284;28;20559;-50
2021/12/09 10:44:57;;;;;;;5.78;0.93;;;17.00;49.60;;;;;;5047600;28;20044;-54
2021/12/09 10:50:30;;;;;;;6.50;0.85;;;17.10;49.50;;;;;;4980461;28;20110;-55
2021/12/09 10:53:04;;;;;;;1.23;0.30;;;17.20;49.40;;;;;;4980420;28;20055;-52
2021/12/09 10:55:33;;;;;;;6.90;0.95;;;17.20;49.20;;;;;;4973504;28;20043;-50
2021/12/09 10:58:07;;;;;;;1.67;0.52;;;17.30;49.10;;;;;;4968627;28;20062;-51
2021/12/09 11:00:39;;;;;;;3.17;0.82;;;17.30;49.00;;;;;;4973963;28;20116;-54
2021/12/09 11:03:14;;;;;;;4.45;0.75;;;17.40;48.80;;;;;;4963103;28;20046;-52
2021/12/09 11:05:46;;;;;;;2.22;0.45;;;17.40;48.70;;;;;;4959464;28;20042;-53
2021/12/09 11:08:19;;;;;;;2.97;1.58;;;17.50;48.60;;;;;;4978325;28;20043;-55
2021/12/09 11:10:48;;;;;;;3.13;1.02;;;17.50;48.40;;;;;;4974571;28;20552;-55
2021/12/09 11:13:18;;;;;;;2.28;0.80;;;17.60;48.40;;;;;;4954457;28;20061;-53
2021/12/09 11:15:53;;;;;;;2.60;1.38;;;17.60;48.30;;;;;;4982510;28;20149;-53
2021/12/09 11:18:35;;;;;;;5.43;0.70;;;17.70;48.20;;;;;;4979145;28;20526;-50
2021/12/09 11:21:09;;;;;;;2.80;0.75;;;17.80;48.00;;;;;;4979484;28;20050;-51
2021/12/09 11:23:41;;;;;;;4.55;0.45;;;17.80;47.90;;;;;;4975987;28;20070;-55
2021/12/09 11:26:45;;;;;;;3.42;0.40;;;17.90;47.90;;;;;;5008891;28;20052;-55
2021/12/09 11:29:14;;;;;;;2.17;0.90;;;18.00;47.80;;;;;;4959591;28;20074;-56
2021/12/09 11:31:46;;;;;;;3.75;0.75;;;18.00;47.70;;;;;;4959385;28;20065;-54
2021/12/09 11:34:17;;;;;;;5.88;0.65;;;18.10;47.50;;;;;;4959141;28;20120;-53
2021/12/09 11:36:53;;;;;;;3.42;0.22;;;18.10;47.30;;;;;;4958755;28;20051;-55
2021/12/09 11:39:27;;;;;;;;;;;18.20;47.10;;;;;;4959037;28;20053;-51
2021/12/09 11:41:54;;;;;;;1.48;0.20;;;18.20;47.10;;;;;;4959784;28;20400;-52
2021/12/09 11:44:21;;;;;;;2.47;0.20;;;18.20;47.10;;;;;;4957731;28;20145;-56
2021/12/09 11:46:49;;;;;;;5.00;0.73;;;18.20;46.80;;;;;;4959334;28;20039;-54
2021/12/09 11:49:17;;;;;;;3.35;0.73;;;18.30;46.80;;;;;;4960118;28;20043;-55
2021/12/09 11:51:44;;;;;;;1.25;0.40;;;18.30;46.70;;;;;;4961353;28;20066;-54
2021/12/09 11:54:13;;;;;;;0.95;0.30;;;18.30;46.50;;;;;;4950868;28;20798;-53
2021/12/09 12:11:37;;;;;;;2.00;0.10;;;18.40;46.00;;;;;;5047233;28;20119;-54
2021/12/09 12:14:14;;;;;;;1.75;0.40;;;18.50;46.00;;;;;;5048488;28;20041;-52
2021/12/09 12:20:14;;;;;;;2.00;0.43;;;18.60;45.90;;;;;;5044349;28;20517;-54
2021/12/09 12:26:11;;;;;;;2.05;0.25;;;18.70;45.60;;;;;;5045804;28;20041;-53
2021/12/09 12:32:04;;;;;;;1.95;0.40;;;18.80;45.40;;;;;;5029185;28;20596;-52
2021/12/09 12:37:52;;;;;;;2.15;0.30;;;19.00;45.20;;;;;;5045544;28;20076;-53
2021/12/09 12:40:23;;;;;;;0.80;0.68;;;19.00;45.20;;;;;;5043423;28;20699;-52
2021/12/09 12:42:57;;;;;;;1.30;0.20;;;19.00;45.00;;;;;;5042147;28;20044;-51
2021/12/09 12:46:00;;;;;;;1.90;0.95;;;19.10;44.90;;;;;;5049049;28;20040;-51
2021/12/09 12:49:13;;;;;;;1.45;0.47;;;19.10;44.70;;;;;;5048702;28;20185;-51
2021/12/09 12:51:53;;;;;;;1.70;0.20;;;19.20;44.70;;;;;;5044787;28;20052;-53
2021/12/09 12:54:33;;;;;;;0.85;0.35;;;19.20;44.60;;;;;;5039274;28;20041;-55
2021/12/09 12:57:03;;;;;;;2.80;0.25;;;19.20;44.60;;;;;;5041569;28;20049;-49
2021/12/09 12:59:33;;;;;;;2.15;0.50;;;19.30;44.60;;;;;;5045854;28;20049;-52
2021/12/09 13:05:19;;;;;;;1.00;0.43;;;19.30;44.40;;;;;;5046954;28;20045;-51
2021/12/09 13:08:04;;;;;;;1.85;0.20;;;19.40;44.50;;;;;;5046506;28;20037;-49
2021/12/09 13:10:45;;;;;;;3.47;0.28;;;19.40;44.40;;;;;;5045732;28;20041;-52
2021/12/09 13:13:20;;;;;;;0.55;0.15;;;19.40;44.40;;;;;;5045602;28;20052;-50
2021/12/09 13:16:13;;;;;;;2.40;0.30;;;19.40;44.30;;;;;;5039973;28;20044;-53
2021/12/09 13:19:05;;;;;;;1.95;0.17;;;19.50;44.20;;;;;;5045459;28;20040;-54
2021/12/09 13:21:35;;;;;;;0.30;0.10;;;19.50;44.20;;;;;;5039752;28;20128;-53
2021/12/09 13:24:26;;;;;;;1.35;0.32;;;19.50;44.10;;;;;;5045322;28;20505;-55
2021/12/09 13:27:22;;;;;;;1.23;0.10;;;19.60;44.00;;;;;;5042975;28;20036;-54
2021/12/09 13:30:05;;;;;;;1.70;0.20;;;19.60;44.00;;;;;;5045559;28;20045;-50
2021/12/09 13:32:58;;;;;;;2.25;0.20;;;19.70;44.00;;;;;;5045383;28;20049;-56
2021/12/09 13:35:38;;;;;;;3.60;0.20;;;19.70;43.90;;;;;;5045427;28;20033;-53
2021/12/09 13:38:19;;;;;;;2.25;0.10;;;19.70;43.90;;;;;;5041516;28;20124;-54
2021/12/09 13:46:28;;;;;;;2.40;0.15;;;19.80;43.80;;;;;;5043012;28;20045;-54